createdAt,value
2023-02-20T00:00:02.375Z,3.62
2023-02-20T00:01:02.365Z,3.65
2023-02-20T00:02:02.344Z,3.62
2023-02-20T00:03:02.334Z,3.60
2023-02-20T00:04:02.350Z,3.60
2023-02-20T00:05:02.354Z,3.60
2023-02-20T00:06:02.359Z,3.54
2023-02-20T00:07:02.331Z,3.60
2023-02-20T00:08:02.318Z,3.69
2023-02-20T00:09:02.324Z,3.65
2023-02-20T00:10:02.305Z,3.68
2023-02-20T00:11:02.325Z,3.65
2023-02-20T00:12:02.300Z,3.66
2023-02-20T00:13:02.306Z,3.60
2023-02-20T00:14:02.301Z,3.61
2023-02-20T00:15:02.299Z,3.58
2023-02-20T00:16:02.354Z,3.60
2023-02-20T00:17:02.306Z,3.54
2023-02-20T00:18:02.273Z,3.55
2023-02-20T00:19:02.268Z,3.58
2023-02-20T00:20:02.288Z,3.60
2023-02-20T00:21:02.266Z,3.51
2023-02-20T00:22:02.277Z,3.51
2023-02-20T00:23:02.273Z,3.58
2023-02-20T00:24:02.247Z,3.48
2023-02-20T00:25:02.255Z,3.48
2023-02-20T00:26:02.251Z,3.47
2023-02-20T00:27:02.250Z,3.47
2023-02-20T00:28:02.255Z,3.50
2023-02-20T00:29:02.265Z,3.47
2023-02-20T00:30:02.280Z,3.45
2023-02-20T00:31:02.262Z,3.52
2023-02-20T00:32:02.252Z,3.58
2023-02-20T00:33:02.258Z,3.57
2023-02-20T00:34:02.219Z,3.55
2023-02-20T00:35:02.230Z,3.47
2023-02-20T00:36:02.209Z,3.43
2023-02-20T00:37:02.208Z,3.50
2023-02-20T00:38:02.204Z,3.43
2023-02-20T00:39:02.203Z,3.48
2023-02-20T00:40:02.198Z,3.50
2023-02-20T00:41:02.210Z,3.55
2023-02-20T00:42:02.182Z,3.43
2023-02-20T00:43:02.197Z,3.39
2023-02-20T00:44:02.186Z,3.39
2023-02-20T00:45:02.175Z,3.35
2023-02-20T00:46:02.206Z,3.43
2023-02-20T00:47:02.181Z,3.39
2023-02-20T00:48:02.157Z,3.50
2023-02-20T00:49:02.156Z,3.40
2023-02-20T00:50:02.153Z,3.39
2023-02-20T00:51:02.156Z,3.42
2023-02-20T00:52:02.132Z,3.43
2023-02-20T00:53:02.157Z,3.35
2023-02-20T00:54:02.148Z,3.45
2023-02-20T00:55:02.141Z,3.36
2023-02-20T00:56:02.136Z,3.45
2023-02-20T00:57:02.105Z,3.36
2023-02-20T00:58:02.111Z,3.39
2023-02-20T00:59:02.104Z,3.35
2023-02-20T01:00:02.102Z,3.35
2023-02-20T01:01:02.117Z,3.45
2023-02-20T01:02:02.120Z,3.43
2023-02-20T01:03:02.144Z,3.36
2023-02-20T01:04:02.097Z,3.43
2023-02-20T01:05:02.101Z,3.32
2023-02-20T01:06:02.083Z,3.29
2023-02-20T01:07:02.072Z,3.32
2023-02-20T01:08:02.085Z,3.32
2023-02-20T01:09:02.050Z,3.39
2023-02-20T01:10:02.059Z,3.39
2023-02-20T01:11:02.071Z,3.36
2023-02-20T01:12:02.052Z,3.39
2023-02-20T01:13:02.065Z,3.40
2023-02-20T01:14:02.044Z,3.36
2023-02-20T01:15:02.039Z,3.35
2023-02-20T01:16:02.077Z,3.39
2023-02-20T01:17:02.026Z,3.39
2023-02-20T01:18:02.039Z,3.35
2023-02-20T01:19:02.026Z,3.40
2023-02-20T01:20:02.006Z,3.48
2023-02-20T01:21:02.001Z,3.42
2023-02-20T01:22:02.016Z,3.35
2023-02-20T01:23:01.989Z,3.43
2023-02-20T01:24:01.999Z,3.45
2023-02-20T01:25:01.987Z,3.51
2023-02-20T01:26:01.998Z,3.51
2023-02-20T01:27:02.006Z,3.52
2023-02-20T01:28:01.973Z,3.50
2023-02-20T01:29:01.978Z,3.52
2023-02-20T01:30:01.972Z,3.52
2023-02-20T01:31:02.000Z,3.45
2023-02-20T01:32:02.180Z,3.47
2023-02-20T01:33:01.964Z,3.51
2023-02-20T01:34:01.977Z,3.51
2023-02-20T01:35:01.942Z,3.52
2023-02-20T01:36:01.942Z,3.58
2023-02-20T01:37:01.948Z,3.60
2023-02-20T01:38:01.943Z,3.58
2023-02-20T01:39:01.938Z,3.57
2023-02-20T01:40:01.946Z,3.69
2023-02-20T01:41:01.951Z,3.62
2023-02-20T01:42:01.913Z,3.54
2023-02-20T01:43:01.915Z,3.54
2023-02-20T01:44:01.923Z,3.68
2023-02-20T01:45:01.943Z,3.61
2023-02-20T01:46:01.900Z,3.65
2023-02-20T01:47:01.905Z,3.70
2023-02-20T01:48:01.884Z,3.76
2023-02-20T01:49:01.895Z,3.70
2023-02-20T01:50:01.905Z,3.73
2023-02-20T01:51:01.879Z,3.75
2023-02-20T01:52:01.862Z,3.68
2023-02-20T01:53:01.892Z,3.69
2023-02-20T01:54:01.866Z,3.75
2023-02-20T01:55:01.885Z,3.75
2023-02-20T01:56:01.875Z,3.83
2023-02-20T01:57:01.855Z,3.72
2023-02-20T01:58:01.847Z,3.73
2023-02-20T01:59:01.846Z,3.86
2023-02-20T02:00:01.872Z,3.83
2023-02-20T02:02:47.619Z,3.84
2023-02-20T02:03:47.578Z,3.86
2023-02-20T02:04:47.729Z,3.86
2023-02-20T02:05:47.607Z,3.83
2023-02-20T02:06:47.675Z,3.80
2023-02-20T02:07:47.639Z,3.88
2023-02-20T02:08:47.642Z,3.84
2023-02-20T02:09:47.715Z,3.83
2023-02-20T02:10:47.618Z,3.90
2023-02-20T02:11:47.593Z,3.90
2023-02-20T02:12:47.503Z,3.78
2023-02-20T02:13:46.839Z,3.83
2023-02-20T02:14:46.816Z,3.79
2023-02-20T02:15:46.828Z,3.79
2023-02-20T02:16:47.520Z,3.94
2023-02-20T02:17:46.804Z,3.88
2023-02-20T02:18:46.804Z,3.88
2023-02-20T02:19:46.784Z,3.83
2023-02-20T02:20:46.807Z,3.86
2023-02-20T02:21:46.773Z,3.86
2023-02-20T02:22:46.770Z,3.93
2023-02-20T02:23:46.803Z,3.91
2023-02-20T02:24:46.769Z,3.90
2023-02-20T02:25:46.772Z,3.98
2023-02-20T02:26:46.763Z,4.00
2023-02-20T02:27:46.786Z,4.00
2023-02-20T02:28:46.748Z,4.00
2023-02-20T02:29:46.757Z,4.05
2023-02-20T02:30:46.756Z,4.06
2023-02-20T02:31:46.746Z,3.93
2023-02-20T02:32:46.747Z,4.04
2023-02-20T02:33:46.724Z,3.97
2023-02-20T02:34:46.715Z,3.96
2023-02-20T02:35:46.742Z,4.04
2023-02-20T02:36:46.716Z,4.05
2023-02-20T02:37:46.710Z,4.09
2023-02-20T02:38:46.698Z,4.06
2023-02-20T02:39:46.690Z,4.09
2023-02-20T02:40:46.699Z,4.11
2023-02-20T02:41:46.698Z,4.15
2023-02-20T02:42:46.698Z,4.08
2023-02-20T02:43:46.688Z,4.05
2023-02-20T02:44:46.683Z,4.06
2023-02-20T02:45:46.744Z,4.12
2023-02-20T02:46:46.688Z,4.14
2023-02-20T02:47:46.671Z,4.12
2023-02-20T02:48:46.663Z,4.22
2023-02-20T02:49:46.649Z,4.30
2023-02-20T02:50:46.656Z,4.27
2023-02-20T02:51:46.652Z,4.30
2023-02-20T02:52:46.745Z,4.30
2023-02-20T02:53:46.659Z,4.26
2023-02-20T02:54:46.635Z,4.24
2023-02-20T02:55:46.650Z,4.22
2023-02-20T02:56:46.639Z,4.29
2023-02-20T02:57:46.623Z,4.24
2023-02-20T02:58:46.612Z,4.41
2023-02-20T02:59:46.618Z,4.36
2023-02-20T03:00:46.674Z,4.36
2023-02-20T03:01:46.608Z,4.36
2023-02-20T03:02:46.688Z,4.47
2023-02-20T03:03:46.598Z,4.47
2023-02-20T03:04:46.594Z,4.50
2023-02-20T03:05:46.607Z,4.37
2023-02-20T03:06:46.617Z,4.48
2023-02-20T03:07:46.581Z,4.47
2023-02-20T03:08:46.589Z,4.41
2023-02-20T03:09:46.574Z,4.52
2023-02-20T03:10:46.590Z,4.36
2023-02-20T03:11:46.581Z,4.45
2023-02-20T03:12:46.564Z,4.45
2023-02-20T03:13:46.587Z,4.45
2023-02-20T03:14:46.567Z,4.48
2023-02-20T03:15:46.561Z,4.50
2023-02-20T03:16:46.602Z,4.54
2023-02-20T03:17:46.548Z,4.45
2023-02-20T03:18:46.549Z,4.54
2023-02-20T03:19:46.560Z,4.69
2023-02-20T03:20:46.556Z,4.50
2023-02-20T03:21:55.099Z,4.47
2023-02-20T03:22:46.546Z,4.54
2023-02-20T03:23:46.547Z,4.48
2023-02-20T03:24:46.551Z,4.45
2023-02-20T03:25:46.513Z,4.50
2023-02-20T03:26:46.531Z,4.54
2023-02-20T03:27:46.518Z,4.52
2023-02-20T03:28:46.525Z,4.52
2023-02-20T03:29:46.522Z,4.52
2023-02-20T03:30:46.497Z,4.52
2023-02-20T03:31:46.583Z,4.62
2023-02-20T03:32:46.506Z,4.59
2023-02-20T03:33:46.494Z,4.52
2023-02-20T03:34:46.493Z,4.50
2023-02-20T03:35:46.480Z,4.62
2023-02-20T03:36:46.490Z,4.69
2023-02-20T03:37:46.466Z,4.62
2023-02-20T03:38:46.479Z,4.63
2023-02-20T03:39:46.471Z,4.69
2023-02-20T03:40:46.477Z,4.65
2023-02-20T03:41:46.470Z,4.58
2023-02-20T03:42:46.451Z,4.73
2023-02-20T03:43:46.441Z,4.63
2023-02-20T03:44:46.437Z,4.67
2023-02-20T03:45:46.499Z,4.67
2023-02-20T03:46:46.441Z,4.67
2023-02-20T03:47:46.437Z,4.73
2023-02-20T03:48:46.447Z,4.75
2023-02-20T03:49:46.450Z,4.82
2023-02-20T03:50:46.424Z,4.82
2023-02-20T03:51:46.408Z,4.78
2023-02-20T03:52:46.427Z,4.77
2023-02-20T03:53:46.409Z,4.82
2023-02-20T03:54:46.398Z,4.86
2023-02-20T03:55:46.407Z,4.82
2023-02-20T03:56:46.408Z,4.85
2023-02-20T03:57:46.396Z,4.78
2023-02-20T03:58:46.376Z,4.86
2023-02-20T03:59:46.385Z,4.82
2023-02-20T04:00:46.394Z,4.80
2023-02-20T04:01:46.384Z,4.92
2023-02-20T04:02:46.367Z,4.88
2023-02-20T04:03:46.362Z,4.88
2023-02-20T04:04:46.354Z,4.84
2023-02-20T04:05:46.395Z,4.94
2023-02-20T04:06:46.360Z,4.86
2023-02-20T04:07:46.370Z,4.91
2023-02-20T04:08:46.343Z,4.97
2023-02-20T04:09:46.345Z,4.97
2023-02-20T04:10:46.357Z,4.94
2023-02-20T04:11:46.344Z,5.02
2023-02-20T04:12:46.347Z,4.96
2023-02-20T04:13:46.316Z,4.99
2023-02-20T04:14:46.308Z,4.94
2023-02-20T04:15:46.334Z,5.04
2023-02-20T04:16:46.342Z,5.04
2023-02-20T04:17:47.266Z,5.07
2023-02-20T04:18:46.311Z,5.03
2023-02-20T04:19:46.295Z,5.06
2023-02-20T04:20:46.294Z,5.10
2023-02-20T04:21:46.281Z,5.10
2023-02-20T04:22:46.290Z,5.12
2023-02-20T04:23:46.296Z,5.10
2023-02-20T04:24:46.293Z,5.13
2023-02-20T04:25:46.289Z,5.15
2023-02-20T04:26:46.287Z,5.13
2023-02-20T04:27:46.258Z,5.22
2023-02-20T04:28:46.283Z,5.20
2023-02-20T04:29:46.273Z,5.25
2023-02-20T04:30:46.290Z,5.24
2023-02-20T04:31:46.261Z,5.27
2023-02-20T04:32:46.235Z,5.22
2023-02-20T04:33:46.258Z,5.24
2023-02-20T04:34:46.247Z,5.27
2023-02-20T04:35:46.251Z,5.33
2023-02-20T04:36:46.228Z,5.39
2023-02-20T04:37:46.225Z,5.36
2023-02-20T04:38:46.222Z,5.39
2023-02-20T04:39:46.232Z,5.39
2023-02-20T04:40:46.220Z,5.39
2023-02-20T04:41:46.207Z,5.36
2023-02-20T04:42:46.200Z,5.40
2023-02-20T04:43:46.192Z,5.42
2023-02-20T04:44:46.212Z,5.42
2023-02-20T04:45:46.217Z,5.43
2023-02-20T04:46:46.183Z,5.53
2023-02-20T04:47:46.184Z,5.54
2023-02-20T04:48:46.174Z,5.51
2023-02-20T04:49:46.188Z,5.48
2023-02-20T04:50:46.169Z,5.56
2023-02-20T04:51:46.165Z,5.51
2023-02-20T04:52:46.148Z,5.53
2023-02-20T04:53:46.159Z,5.58
2023-02-20T04:54:46.149Z,5.65
2023-02-20T04:55:46.155Z,5.63
2023-02-20T04:56:46.169Z,5.67
2023-02-20T04:57:46.144Z,5.65
2023-02-20T04:58:46.144Z,5.67
2023-02-20T04:59:46.142Z,5.75
2023-02-20T05:00:46.155Z,5.76
2023-02-20T05:01:46.123Z,5.72
2023-02-20T05:02:46.166Z,5.75
2023-02-20T05:03:46.107Z,5.76
2023-02-20T05:04:46.118Z,5.72
2023-02-20T05:05:46.125Z,5.75
2023-02-20T05:06:46.120Z,5.78
2023-02-20T05:07:46.093Z,5.82
2023-02-20T05:08:46.097Z,5.79
2023-02-20T05:09:46.103Z,5.86
2023-02-20T05:10:46.088Z,5.86
2023-02-20T05:11:46.097Z,5.89
2023-02-20T05:12:46.107Z,5.93
2023-02-20T05:13:46.165Z,5.86
2023-02-20T05:14:46.094Z,5.81
2023-02-20T05:15:46.106Z,5.94
2023-02-20T05:16:46.066Z,5.93
2023-02-20T05:17:46.108Z,5.91
2023-02-20T05:18:46.075Z,5.94
2023-02-20T05:19:46.082Z,6.00
2023-02-20T05:20:46.079Z,6.04
2023-02-20T05:21:46.061Z,5.97
2023-02-20T05:22:46.048Z,5.99
2023-02-20T05:23:46.043Z,6.00
2023-02-20T05:24:46.061Z,6.01
2023-02-20T05:25:46.040Z,6.04
2023-02-20T05:26:46.036Z,6.03
2023-02-20T05:27:46.019Z,6.04
2023-02-20T05:28:46.044Z,6.03
2023-02-20T05:29:46.019Z,6.04
2023-02-20T05:30:46.088Z,6.15
2023-02-20T05:31:46.118Z,6.09
2023-02-20T05:32:46.013Z,6.12
2023-02-20T05:33:46.020Z,6.15
2023-02-20T05:34:46.012Z,6.18
2023-02-20T05:35:46.004Z,6.19
2023-02-20T05:36:45.995Z,6.18
2023-02-20T05:37:45.997Z,6.21
2023-02-20T05:38:45.993Z,6.25
2023-02-20T05:39:45.995Z,6.31
2023-02-20T05:40:45.986Z,6.25
2023-02-20T05:41:45.985Z,6.33
2023-02-20T05:42:45.986Z,6.33
2023-02-20T05:43:45.985Z,6.33
2023-02-20T05:44:45.988Z,6.38
2023-02-20T05:45:45.981Z,6.41
2023-02-20T05:46:45.990Z,6.37
2023-02-20T05:47:45.973Z,6.38
2023-02-20T05:48:45.956Z,6.36
2023-02-20T05:49:45.967Z,6.41
2023-02-20T05:50:45.961Z,6.33
2023-02-20T05:51:45.937Z,6.41
2023-02-20T05:52:45.942Z,6.41
2023-02-20T05:53:45.923Z,6.36
2023-02-20T05:54:45.924Z,6.37
2023-02-20T05:55:45.947Z,6.51
2023-02-20T05:56:45.950Z,6.34
2023-02-20T05:57:45.936Z,6.44
2023-02-20T05:58:45.917Z,6.54
2023-02-20T05:59:45.929Z,6.61
2023-02-20T06:00:45.927Z,6.51
2023-02-20T06:01:45.930Z,6.56
2023-02-20T06:02:45.913Z,6.56
2023-02-20T06:03:45.958Z,6.58
2023-02-20T06:04:45.910Z,6.51
2023-02-20T06:05:45.887Z,6.56
2023-02-20T06:06:45.905Z,6.62
2023-02-20T06:07:45.875Z,6.54
2023-02-20T06:08:45.887Z,6.49
2023-02-20T06:09:45.877Z,6.67
2023-02-20T06:10:45.896Z,6.64
2023-02-20T06:11:45.886Z,6.62
2023-02-20T06:12:45.885Z,6.58
2023-02-20T06:13:45.854Z,6.61
2023-02-20T06:14:45.869Z,6.64
2023-02-20T06:15:45.848Z,6.59
2023-02-20T06:16:45.858Z,6.44
2023-02-20T06:17:45.854Z,6.52
2023-02-20T06:18:45.855Z,6.52
2023-02-20T06:19:45.851Z,6.54
2023-02-20T06:20:45.846Z,6.55
2023-02-20T06:21:45.844Z,6.64
2023-02-20T06:22:45.838Z,6.49
2023-02-20T06:23:45.824Z,6.64
2023-02-20T06:24:45.852Z,6.61
2023-02-20T06:25:45.825Z,6.58
2023-02-20T06:26:45.840Z,6.61
2023-02-20T06:27:45.840Z,6.69
2023-02-20T06:28:45.807Z,6.67
2023-02-20T06:29:45.818Z,6.66
2023-02-20T06:30:45.853Z,6.64
2023-02-20T06:31:45.891Z,6.69
2023-02-20T06:32:45.814Z,6.69
2023-02-20T06:33:45.797Z,6.66
2023-02-20T06:34:45.816Z,6.69
2023-02-20T06:35:45.788Z,6.69
2023-02-20T06:36:45.787Z,6.64
2023-02-20T06:37:45.779Z,6.66
2023-02-20T06:38:45.796Z,6.74
2023-02-20T06:39:45.789Z,6.74
2023-02-20T06:40:45.788Z,6.71
2023-02-20T06:41:45.779Z,6.79
2023-02-20T06:42:45.777Z,6.79
2023-02-20T06:43:45.784Z,6.77
2023-02-20T06:44:45.763Z,6.81
2023-02-20T06:45:45.772Z,6.80
2023-02-20T06:46:45.832Z,6.79
2023-02-20T06:47:45.758Z,6.77
2023-02-20T06:48:45.762Z,6.73
2023-02-20T06:49:45.761Z,6.76
2023-02-20T06:50:45.765Z,6.81
2023-02-20T06:51:45.744Z,6.88
2023-02-20T06:52:45.742Z,6.92
2023-02-20T06:53:45.729Z,6.91
2023-02-20T06:54:45.754Z,6.88
2023-02-20T06:55:45.722Z,6.88
2023-02-20T06:56:45.735Z,6.91
2023-02-20T06:57:45.718Z,6.89
2023-02-20T06:58:45.729Z,6.92
2023-02-20T06:59:45.716Z,6.97
2023-02-20T07:00:45.747Z,6.94
2023-02-20T07:01:45.722Z,6.92
2023-02-20T07:02:45.717Z,6.99
2023-02-20T07:03:45.696Z,6.98
2023-02-20T07:04:45.731Z,6.97
2023-02-20T07:05:45.723Z,7.05
2023-02-20T07:06:45.698Z,6.97
2023-02-20T07:07:45.689Z,7.06
2023-02-20T07:08:45.681Z,6.98
2023-02-20T07:09:45.690Z,7.05
2023-02-20T07:10:45.676Z,6.99
2023-02-20T07:11:45.681Z,6.95
2023-02-20T07:12:45.679Z,7.03
2023-02-20T07:13:45.691Z,6.99
2023-02-20T07:14:45.675Z,7.13
2023-02-20T07:15:45.666Z,7.07
2023-02-20T07:16:45.653Z,7.15
2023-02-20T07:17:45.659Z,7.21
2023-02-20T07:18:45.672Z,7.23
2023-02-20T07:19:45.664Z,7.23
2023-02-20T07:20:45.660Z,7.31
2023-02-20T07:21:45.662Z,7.32
2023-02-20T07:22:45.658Z,7.34
2023-02-20T07:23:45.641Z,7.27
2023-02-20T07:24:45.665Z,7.39
2023-02-20T07:25:45.626Z,7.35
2023-02-20T07:26:45.626Z,7.34
2023-02-20T07:27:45.638Z,7.40
2023-02-20T07:28:45.613Z,7.43
2023-02-20T07:29:45.638Z,7.45
2023-02-20T07:30:45.623Z,7.46
2023-02-20T07:31:45.687Z,7.45
2023-02-20T07:32:45.611Z,7.43
2023-02-20T07:33:45.615Z,7.57
2023-02-20T07:34:57.893Z,7.55
2023-02-20T07:35:45.600Z,7.53
2023-02-20T07:36:45.614Z,7.58
2023-02-20T07:37:45.612Z,7.60
2023-02-20T07:38:45.596Z,7.60
2023-02-20T07:39:45.595Z,7.64
2023-02-20T07:40:45.588Z,7.61
2023-02-20T07:41:45.581Z,7.53
2023-02-20T07:42:45.589Z,7.57
2023-02-20T07:43:45.589Z,7.58
2023-02-20T07:44:45.587Z,7.60
2023-02-20T07:45:45.591Z,7.61
2023-02-20T07:46:45.573Z,7.60
2023-02-20T07:47:45.564Z,7.57
2023-02-20T07:48:45.579Z,7.60
2023-02-20T07:49:45.569Z,7.60
2023-02-20T07:50:45.579Z,7.58
2023-02-20T07:51:45.550Z,7.64
2023-02-20T07:52:45.542Z,7.64
2023-02-20T07:53:45.571Z,7.60
2023-02-20T07:54:45.539Z,7.52
2023-02-20T07:55:45.554Z,7.60
2023-02-20T07:56:45.531Z,7.74
2023-02-20T07:57:45.545Z,7.74
2023-02-20T07:58:45.552Z,7.52
2023-02-20T07:59:45.536Z,7.68
2023-02-20T08:00:45.528Z,7.69
2023-02-20T08:01:45.700Z,7.68
2023-02-20T08:02:45.518Z,7.69
2023-02-20T08:03:45.532Z,7.72
2023-02-20T08:04:45.564Z,7.69
2023-02-20T08:05:49.522Z,7.64
2023-02-20T08:06:45.507Z,7.74
2023-02-20T08:07:45.507Z,7.74
2023-02-20T08:08:53.697Z,7.77
2023-02-20T08:09:45.510Z,7.75
2023-02-20T08:11:03.584Z,7.82
2023-02-20T08:11:53.756Z,7.82
2023-02-20T08:12:53.795Z,7.74
2023-02-20T08:13:45.484Z,7.83
2023-02-20T08:14:53.827Z,7.79
2023-02-20T08:15:53.108Z,7.77
2023-02-20T08:16:53.876Z,7.86
2023-02-20T08:17:47.240Z,7.89
2023-02-20T08:18:53.053Z,7.92
2023-02-20T08:19:45.471Z,7.95
2023-02-20T08:20:45.477Z,7.95
2023-02-20T08:21:53.961Z,8.01
2023-02-20T08:22:45.457Z,8.01
2023-02-20T08:23:53.490Z,8.04
2023-02-20T08:24:53.509Z,8.10
2023-02-20T08:25:53.007Z,8.04
2023-02-20T08:26:45.441Z,8.01
2023-02-20T08:27:53.576Z,8.02
2023-02-20T08:28:53.635Z,8.00
2023-02-20T08:29:54.663Z,8.00
2023-02-20T08:30:45.444Z,7.97
2023-02-20T08:31:45.504Z,8.00
2023-02-20T08:32:53.827Z,8.07
2023-02-20T08:33:53.754Z,8.08
2023-02-20T08:34:45.431Z,8.04
2023-02-20T08:35:53.002Z,8.08
2023-02-20T08:36:45.399Z,8.05
2023-02-20T08:37:53.780Z,8.12
2023-02-20T08:38:53.832Z,8.18
2023-02-20T08:39:45.400Z,8.19
2023-02-20T08:40:53.876Z,8.22
2023-02-20T08:41:53.414Z,8.25
2023-02-20T08:42:53.422Z,8.23
2023-02-20T08:43:53.504Z,8.23
2023-02-20T08:44:45.384Z,8.22
2023-02-20T08:45:53.619Z,8.29
2023-02-20T08:46:45.380Z,8.28
2023-02-20T08:47:45.383Z,8.37
2023-02-20T08:48:45.381Z,8.30
2023-02-20T08:49:45.360Z,8.37
2023-02-20T08:50:45.357Z,8.30
2023-02-20T08:51:45.346Z,8.40
2023-02-20T08:52:45.349Z,8.38
2023-02-20T08:53:45.326Z,8.47
2023-02-20T08:54:45.358Z,8.50
2023-02-20T08:55:45.335Z,8.56
2023-02-20T08:56:45.406Z,8.58
2023-02-20T08:59:35.964Z,8.63
2023-02-20T09:00:35.933Z,8.65
2023-02-20T09:01:36.003Z,8.63
2023-02-20T09:02:35.967Z,8.61
2023-02-20T09:03:35.932Z,8.70
2023-02-20T09:04:35.906Z,8.76
2023-02-20T09:05:38.191Z,8.76
2023-02-20T09:06:35.883Z,8.73
2023-02-20T09:07:35.894Z,8.73
2023-02-20T09:08:35.895Z,8.68
2023-02-20T09:09:35.904Z,8.76
2023-02-20T09:10:35.881Z,8.76
2023-02-20T09:11:35.877Z,8.77
2023-02-20T09:12:35.877Z,8.89
2023-02-20T09:13:35.878Z,8.87
2023-02-20T09:14:35.871Z,8.80
2023-02-20T09:15:35.891Z,8.92
2023-02-20T09:16:35.886Z,8.92
2023-02-20T09:17:35.859Z,8.92
2023-02-20T09:18:35.865Z,8.95
2023-02-20T09:19:35.897Z,8.95
2023-02-20T09:20:35.860Z,8.96
2023-02-20T09:21:35.847Z,8.96
2023-02-20T09:22:45.973Z,8.99
2023-02-20T09:23:35.989Z,9.02
2023-02-20T09:24:35.892Z,9.02
2023-02-20T09:25:40.326Z,9.04
2023-02-20T09:26:37.209Z,9.10
2023-02-20T09:27:38.352Z,8.95
2023-02-20T09:28:35.849Z,9.01
2023-02-20T09:29:35.941Z,9.10
2023-02-20T09:30:36.034Z,8.95
2023-02-20T09:31:36.078Z,8.98
2023-02-20T09:32:36.041Z,9.10
2023-02-20T09:33:35.861Z,9.10
2023-02-20T09:34:35.939Z,9.15
2023-02-20T09:35:35.817Z,9.21
2023-02-20T09:36:36.014Z,9.29
2023-02-20T09:37:36.476Z,9.23
2023-02-20T09:38:35.842Z,9.32
2023-02-20T09:39:35.878Z,9.21
2023-02-20T09:40:35.884Z,9.36
2023-02-20T09:41:36.478Z,9.31
2023-02-20T09:42:36.571Z,9.43
2023-02-20T09:43:36.344Z,9.48
2023-02-20T09:44:36.408Z,9.51
2023-02-20T09:45:35.867Z,9.65
2023-02-20T09:46:36.514Z,9.56
2023-02-20T09:47:37.595Z,9.65
2023-02-20T09:48:35.908Z,9.64
2023-02-20T09:49:35.830Z,9.72
2023-02-20T09:50:36.029Z,9.71
2023-02-20T09:51:36.377Z,9.72
2023-02-20T09:52:35.771Z,9.87
2023-02-20T09:53:35.848Z,9.84
2023-02-20T09:54:35.834Z,9.84
2023-02-20T09:55:35.859Z,9.84
2023-02-20T09:56:35.771Z,9.83
2023-02-20T09:57:35.791Z,9.87
2023-02-20T09:58:35.832Z,9.84
2023-02-20T09:59:36.341Z,9.89
2023-02-20T10:00:35.865Z,9.90
2023-02-20T10:01:35.773Z,9.99
2023-02-20T10:02:36.419Z,10.07
2023-02-20T10:03:35.754Z,10.08
2023-02-20T10:04:35.782Z,10.14
2023-02-20T10:05:35.793Z,10.22
2023-02-20T10:06:35.788Z,10.30
2023-02-20T10:07:35.803Z,10.36
2023-02-20T10:08:35.758Z,10.34
2023-02-20T10:09:35.786Z,10.55
2023-02-20T10:10:35.739Z,10.60
2023-02-20T10:11:35.731Z,10.68
2023-02-20T10:12:35.747Z,10.68
2023-02-20T10:13:36.419Z,10.79
2023-02-20T10:14:37.368Z,10.88
2023-02-20T10:15:36.338Z,10.81
2023-02-20T10:16:36.390Z,10.79
2023-02-20T10:17:35.744Z,10.82
2023-02-20T10:18:36.419Z,10.79
2023-02-20T10:19:35.870Z,10.84
2023-02-20T10:20:35.826Z,10.82
2023-02-20T10:21:36.488Z,10.79
2023-02-20T10:22:35.714Z,10.78
2023-02-20T10:23:35.719Z,10.92
2023-02-20T10:24:35.703Z,10.94
2023-02-20T10:25:35.699Z,10.85
2023-02-20T10:26:35.715Z,10.86
2023-02-20T10:27:35.710Z,10.88
2023-02-20T10:28:35.708Z,10.88
2023-02-20T10:29:36.349Z,10.86
2023-02-20T10:30:38.912Z,10.86
2023-02-20T10:31:35.869Z,10.91
2023-02-20T10:32:35.730Z,10.85
2023-02-20T10:33:35.714Z,10.78
2023-02-20T10:34:35.696Z,10.79
2023-02-20T10:35:35.838Z,10.79
2023-02-20T10:36:37.505Z,10.81
2023-02-20T10:37:46.703Z,10.81
2023-02-20T10:38:35.816Z,10.85
2023-02-20T10:39:35.829Z,10.81
2023-02-20T10:40:36.405Z,10.85
2023-02-20T10:41:36.383Z,10.85
2023-02-20T10:42:35.766Z,10.84
2023-02-20T10:43:35.803Z,10.96
2023-02-20T10:44:46.358Z,10.91
2023-02-20T10:45:35.672Z,10.88
2023-02-20T10:46:48.242Z,10.96
2023-02-20T10:47:35.678Z,11.02
2023-02-20T10:48:35.676Z,11.10
2023-02-20T10:49:35.723Z,11.09
2023-02-20T10:50:35.680Z,11.09
2023-02-20T10:51:35.709Z,11.19
2023-02-20T10:52:35.672Z,11.22
2023-02-20T10:53:35.680Z,11.14
2023-02-20T10:54:35.650Z,11.19
2023-02-20T10:55:35.654Z,11.06
2023-02-20T10:56:35.664Z,11.06
2023-02-20T10:57:35.684Z,11.17
2023-02-20T10:58:35.627Z,11.17
2023-02-20T10:59:35.629Z,11.21
2023-02-20T11:00:35.641Z,11.21
2023-02-20T11:01:35.807Z,11.15
2023-02-20T11:02:35.620Z,11.11
2023-02-20T11:03:35.649Z,11.17
2023-02-20T11:04:35.817Z,11.17
2023-02-20T11:05:35.650Z,11.19
2023-02-20T11:06:35.689Z,11.17
2023-02-20T11:07:35.661Z,11.21
2023-02-20T11:08:35.642Z,11.15
2023-02-20T11:09:35.611Z,11.27
2023-02-20T11:10:35.625Z,11.29
2023-02-20T11:11:35.627Z,11.28
2023-02-20T11:12:35.611Z,11.36
2023-02-20T11:13:35.704Z,11.35
2023-02-20T11:14:41.052Z,11.27
2023-02-20T11:15:35.639Z,11.24
2023-02-20T11:16:36.439Z,11.25
2023-02-20T11:17:35.651Z,11.19
2023-02-20T11:18:35.596Z,11.24
2023-02-20T11:19:35.656Z,11.21
2023-02-20T11:20:35.690Z,11.21
2023-02-20T11:21:35.700Z,11.19
2023-02-20T11:22:35.602Z,11.22
2023-02-20T11:23:35.574Z,11.19
2023-02-20T11:24:35.623Z,11.24
2023-02-20T11:25:35.672Z,11.14
2023-02-20T11:26:35.608Z,11.18
2023-02-20T11:27:35.584Z,11.27
2023-02-20T11:28:35.620Z,11.35
2023-02-20T11:29:35.592Z,11.24
2023-02-20T11:30:35.712Z,11.28
2023-02-20T11:31:35.699Z,11.19
2023-02-20T11:32:35.579Z,11.21
2023-02-20T11:33:35.577Z,11.27
2023-02-20T11:34:35.585Z,11.28
2023-02-20T11:35:35.610Z,11.24
2023-02-20T11:36:35.568Z,11.27
2023-02-20T11:37:40.070Z,11.32
2023-02-20T11:38:35.563Z,11.39
2023-02-20T11:39:35.571Z,11.36
2023-02-20T11:40:35.560Z,11.42
2023-02-20T11:41:35.590Z,11.51
2023-02-20T11:42:35.688Z,11.47
2023-02-20T11:43:35.602Z,11.60
2023-02-20T11:44:35.601Z,11.70
2023-02-20T11:45:35.541Z,11.70
2023-02-20T11:46:35.679Z,11.67
2023-02-20T11:47:35.585Z,11.62
2023-02-20T11:48:35.568Z,11.79
2023-02-20T11:49:35.602Z,11.73
2023-02-20T11:50:36.510Z,11.82
2023-02-20T11:51:35.612Z,11.85
2023-02-20T11:52:35.525Z,11.83
2023-02-20T11:53:35.533Z,11.86
2023-02-20T11:54:35.555Z,11.86
2023-02-20T11:55:35.562Z,11.83
2023-02-20T11:56:35.526Z,11.88
2023-02-20T11:57:35.627Z,11.85
2023-02-20T11:58:35.568Z,11.82
2023-02-20T11:59:35.534Z,11.85
2023-02-20T12:00:35.509Z,11.78
2023-02-20T12:01:35.581Z,11.78
2023-02-20T12:02:35.608Z,11.82
2023-02-20T12:03:35.538Z,11.80
2023-02-20T12:04:35.505Z,11.73
2023-02-20T12:05:35.644Z,11.73
2023-02-20T12:06:35.537Z,11.73
2023-02-20T12:07:35.536Z,11.72
2023-02-20T12:08:35.566Z,11.73
2023-02-20T12:09:35.523Z,11.78
2023-02-20T12:10:35.516Z,11.79
2023-02-20T12:11:35.529Z,11.73
2023-02-20T12:12:35.587Z,11.78
2023-02-20T12:13:35.494Z,11.72
2023-02-20T12:14:35.544Z,11.73
2023-02-20T12:15:35.488Z,11.76
2023-02-20T12:16:35.643Z,11.75
2023-02-20T12:17:35.538Z,11.79
2023-02-20T12:18:35.502Z,11.79
2023-02-20T12:19:35.557Z,11.73
2023-02-20T12:20:35.567Z,11.73
2023-02-20T12:21:35.486Z,11.70
2023-02-20T12:22:35.518Z,11.83
2023-02-20T12:23:35.521Z,11.78
2023-02-20T12:24:35.519Z,11.76
2023-02-20T12:25:35.477Z,11.73
2023-02-20T12:26:37.105Z,11.73
2023-02-20T12:27:35.465Z,11.80
2023-02-20T12:28:35.475Z,11.80
2023-02-20T12:29:35.532Z,11.75
2023-02-20T12:30:35.506Z,11.67
2023-02-20T12:31:35.713Z,11.75
2023-02-20T12:32:35.588Z,11.62
2023-02-20T12:33:35.517Z,11.67
2023-02-20T12:34:35.535Z,11.70
2023-02-20T12:35:35.474Z,11.69
2023-02-20T12:36:35.462Z,11.70
2023-02-20T12:37:35.460Z,11.72
2023-02-20T12:38:35.452Z,11.60
2023-02-20T12:39:35.451Z,11.70
2023-02-20T12:40:35.465Z,11.65
2023-02-20T12:41:35.452Z,11.58
2023-02-20T12:42:35.447Z,11.60
2023-02-20T12:43:35.446Z,11.51
2023-02-20T12:44:35.461Z,11.51
2023-02-20T12:45:35.458Z,11.55
2023-02-20T12:46:35.459Z,11.60
2023-02-20T12:47:35.443Z,11.52
2023-02-20T12:48:35.445Z,11.49
2023-02-20T12:49:35.419Z,11.55
2023-02-20T12:50:35.417Z,11.57
2023-02-20T12:51:35.415Z,11.58
2023-02-20T12:52:35.442Z,11.61
2023-02-20T12:53:35.424Z,11.57
2023-02-20T12:54:35.411Z,11.61
2023-02-20T12:55:35.452Z,11.61
2023-02-20T12:56:35.466Z,11.58
2023-02-20T12:57:35.452Z,11.61
2023-02-20T12:58:35.420Z,11.70
2023-02-20T12:59:35.421Z,11.55
2023-02-20T13:00:35.458Z,11.62
2023-02-20T13:01:40.161Z,11.64
2023-02-20T13:02:42.060Z,11.60
2023-02-20T13:03:35.422Z,11.58
2023-02-20T13:04:35.392Z,11.60
2023-02-20T13:05:35.417Z,11.54
2023-02-20T13:06:35.396Z,11.58
2023-02-20T13:07:35.405Z,11.52
2023-02-20T13:08:35.407Z,11.47
2023-02-20T13:09:35.413Z,11.51
2023-02-20T13:10:35.384Z,11.47
2023-02-20T13:11:35.382Z,11.51
2023-02-20T13:12:35.387Z,11.47
2023-02-20T13:13:35.439Z,11.49
2023-02-20T13:14:35.374Z,11.44
2023-02-20T13:15:35.384Z,11.49